createdAt,value
2018-08-09T00:00:59.470Z,2.23
2018-08-09T00:03:27.920Z,2.70
2018-08-09T00:05:56.387Z,2.80
2018-08-09T00:08:24.881Z,2.67
2018-08-09T00:10:53.384Z,2.40
2018-08-09T00:13:21.827Z,2.83
2018-08-09T00:15:50.319Z,2.43
2018-08-09T00:18:18.844Z,2.17
2018-08-09T00:20:47.315Z,2.10
2018-08-09T00:23:15.816Z,2.20
2018-08-09T00:25:44.429Z,2.47
2018-08-09T00:28:12.924Z,2.10
2018-08-09T00:30:41.444Z,2.20
2018-08-09T00:33:09.904Z,2.40
2018-08-09T00:35:38.508Z,2.50
2018-08-09T00:38:07.107Z,2.13
2018-08-09T00:40:35.540Z,1.97
2018-08-09T00:43:04.100Z,1.70
2018-08-09T00:45:32.646Z,2.17
2018-08-09T00:48:01.172Z,1.90
2018-08-09T00:50:29.696Z,2.30
2018-08-09T00:52:58.163Z,2.47
2018-08-09T00:55:26.751Z,2.30
2018-08-09T00:57:55.293Z,1.90
2018-08-09T01:00:23.843Z,2.20
2018-08-09T01:02:52.315Z,2.53
2018-08-09T01:05:20.885Z,2.70
2018-08-09T01:07:49.427Z,2.30
2018-08-09T01:10:17.944Z,2.27
2018-08-09T01:12:46.426Z,2.50
2018-08-09T01:15:14.988Z,2.40
2018-08-09T01:17:43.507Z,1.80
2018-08-09T01:20:12.044Z,2.00
2018-08-09T01:22:40.600Z,2.03
2018-08-09T01:25:09.083Z,2.13
2018-08-09T01:27:37.543Z,2.43
2018-08-09T01:30:06.083Z,2.00
2018-08-09T01:32:34.651Z,2.30
2018-08-09T01:35:03.242Z,2.53
2018-08-09T01:37:31.784Z,2.40
2018-08-09T01:40:00.254Z,2.20
2018-08-09T01:42:39.987Z,2.63
2018-08-09T01:45:08.506Z,3.17
2018-08-09T01:47:36.953Z,2.70
2018-08-09T01:50:05.532Z,2.57
2018-08-09T01:52:34.031Z,2.87
2018-08-09T01:55:02.485Z,3.43
2018-08-09T01:57:31.053Z,2.70
2018-08-09T01:59:59.972Z,2.90
2018-08-09T02:02:28.451Z,3.33
2018-08-09T02:04:57.358Z,3.20
2018-08-09T02:07:25.877Z,2.60
2018-08-09T02:09:54.320Z,2.47
2018-08-09T02:12:22.759Z,2.77
2018-08-09T02:14:51.143Z,3.53
2018-08-09T02:17:19.555Z,2.87
2018-08-09T02:19:47.967Z,2.93
2018-08-09T02:22:16.462Z,3.87
2018-08-09T02:24:44.851Z,3.10
2018-08-09T02:27:13.251Z,3.53
2018-08-09T02:29:41.806Z,4.40
2018-08-09T02:32:10.228Z,2.60
2018-08-09T02:34:38.736Z,3.47
2018-08-09T02:37:07.405Z,3.20
2018-08-09T02:39:35.891Z,3.17
2018-08-09T02:42:04.379Z,3.30
2018-08-09T02:44:32.807Z,4.43
2018-08-09T02:47:01.444Z,3.20
2018-08-09T02:49:29.967Z,3.20
2018-08-09T02:51:58.387Z,3.10
2018-08-09T02:54:26.926Z,3.03
2018-08-09T02:56:55.356Z,3.37
2018-08-09T02:59:24.016Z,3.30
2018-08-09T03:01:52.590Z,3.23
2018-08-09T03:04:21.108Z,3.33
2018-08-09T03:06:49.588Z,3.03
2018-08-09T03:09:18.095Z,3.53
2018-08-09T03:11:46.604Z,3.13
2018-08-09T03:14:15.056Z,3.10
2018-08-09T03:16:43.563Z,3.27
2018-08-09T03:19:11.985Z,3.13
2018-08-09T03:21:40.723Z,3.70
2018-08-09T03:24:09.181Z,2.87
2018-08-09T03:26:37.732Z,3.60
2018-08-09T03:29:06.305Z,3.27
2018-08-09T03:31:34.852Z,3.40
2018-08-09T03:34:03.339Z,3.17
2018-08-09T03:36:31.795Z,3.50
2018-08-09T03:39:00.277Z,3.60
2018-08-09T03:41:28.778Z,3.37
2018-08-09T03:43:57.206Z,3.47
2018-08-09T03:46:26.115Z,3.30
2018-08-09T03:48:54.613Z,3.30
2018-08-09T03:51:23.115Z,3.50
2018-08-09T03:53:51.590Z,3.10
2018-08-09T03:56:20.036Z,2.70
2018-08-09T03:58:48.559Z,3.10
2018-08-09T04:01:17.009Z,2.67
2018-08-09T04:03:45.503Z,3.27
2018-08-09T04:06:13.975Z,2.57
2018-08-09T04:08:42.468Z,3.23
2018-08-09T04:11:10.935Z,3.10
2018-08-09T04:13:39.415Z,3.70
2018-08-09T04:16:08.235Z,4.10
2018-08-09T04:18:36.924Z,3.10
2018-08-09T04:21:05.422Z,2.80
2018-08-09T04:23:33.923Z,3.60
2018-08-09T04:26:02.475Z,2.73
2018-08-09T04:28:31.001Z,3.10
2018-08-09T04:30:59.591Z,3.33
2018-08-09T04:33:28.080Z,3.10
2018-08-09T04:35:56.633Z,2.80
2018-08-09T04:38:25.044Z,3.00
2018-08-09T04:40:53.643Z,3.47
2018-08-09T04:43:22.127Z,3.10
2018-08-09T04:45:50.647Z,3.10
2018-08-09T04:48:19.081Z,3.10
2018-08-09T04:50:47.684Z,3.47
2018-08-09T04:53:16.167Z,3.40
2018-08-09T04:55:44.594Z,3.20
2018-08-09T04:58:13.059Z,3.20
2018-08-09T05:00:41.453Z,3.80
2018-08-09T05:03:09.848Z,3.30
2018-08-09T05:05:38.267Z,3.40
2018-08-09T05:08:06.679Z,2.83
2018-08-09T05:11:37.631Z,3.30
2018-08-09T05:15:30.535Z,2.80
2018-08-09T05:17:58.966Z,3.40
2018-08-09T05:20:27.405Z,2.80
2018-08-09T05:22:55.932Z,3.10
2018-08-09T05:25:24.316Z,3.47
2018-08-09T05:27:52.752Z,3.70
2018-08-09T05:30:21.155Z,3.63
2018-08-09T05:32:49.611Z,3.70
2018-08-09T05:35:18.020Z,3.80
2018-08-09T05:37:46.471Z,3.93
2018-08-09T05:40:14.884Z,3.93
2018-08-09T05:42:43.312Z,3.47
2018-08-09T05:45:11.797Z,3.37
2018-08-09T05:47:40.230Z,4.00
2018-08-09T05:50:08.750Z,3.90
2018-08-09T05:52:37.383Z,3.87
2018-08-09T05:55:06.316Z,3.67
2018-08-09T05:57:34.803Z,3.67
2018-08-09T06:00:03.310Z,4.10
2018-08-09T06:02:31.736Z,4.40
2018-08-09T06:05:00.175Z,4.33
2018-08-09T06:07:28.568Z,3.80
2018-08-09T06:09:57.013Z,3.97
2018-08-09T06:12:25.456Z,4.47
2018-08-09T06:14:54.019Z,3.83
2018-08-09T06:17:22.457Z,4.30
2018-08-09T06:19:50.943Z,3.80
2018-08-09T06:22:20.281Z,3.97
2018-08-09T06:24:48.676Z,4.27
2018-08-09T06:27:17.101Z,3.90
2018-08-09T06:29:45.532Z,10.70
2018-08-09T06:32:14.048Z,5.00
2018-08-09T06:34:42.483Z,5.00
2018-08-09T06:37:10.939Z,4.40
2018-08-09T06:39:39.355Z,4.53
2018-08-09T06:42:07.772Z,4.60
2018-08-09T06:44:36.183Z,6.03
2018-08-09T06:47:04.643Z,4.20
2018-08-09T06:49:33.063Z,5.50
2018-08-09T06:52:01.533Z,4.83
2018-08-09T06:54:30.024Z,5.30
2018-08-09T06:56:58.457Z,4.73
2018-08-09T07:06:26.100Z,4.90
2018-08-09T07:08:54.520Z,5.30
2018-08-09T07:11:23.080Z,5.17
2018-08-09T07:13:51.560Z,5.83
2018-08-09T07:16:19.953Z,5.67
2018-08-09T07:18:48.403Z,5.90
2018-08-09T07:21:16.839Z,5.27
2018-08-09T07:23:45.276Z,7.03
2018-08-09T07:26:13.667Z,6.27
2018-08-09T07:28:42.064Z,24.17
2018-08-09T07:31:10.521Z,9.17
2018-08-09T07:33:38.962Z,11.73
2018-08-09T07:36:07.374Z,8.53
2018-08-09T07:38:35.786Z,7.30
2018-08-09T07:41:04.213Z,7.60
2018-08-09T07:43:32.623Z,6.80
2018-08-09T07:46:01.070Z,8.20
2018-08-09T07:48:29.522Z,8.73
2018-08-09T07:50:57.944Z,7.80
2018-08-09T07:53:26.340Z,7.80
2018-08-09T07:55:54.757Z,8.00
2018-08-09T07:58:23.163Z,8.10
2018-08-09T08:00:51.569Z,7.50
2018-08-09T08:03:19.980Z,7.97
2018-08-09T08:05:48.409Z,8.60
2018-08-09T08:08:16.872Z,8.50
2018-08-09T08:10:47.863Z,8.57
2018-08-09T08:13:17.282Z,7.30
2018-08-09T08:15:45.806Z,7.30
2018-08-09T08:18:14.264Z,7.53
2018-08-09T08:20:42.767Z,7.07
2018-08-09T08:23:11.127Z,7.43
2018-08-09T08:25:39.567Z,7.97
2018-08-09T08:29:32.512Z,9.00
2018-08-09T08:32:00.995Z,8.63
2018-08-09T08:34:29.490Z,7.93
2018-08-09T08:36:57.905Z,7.90
2018-08-09T08:46:29.597Z,14.73
2018-08-09T08:48:58.061Z,8.20
2018-08-09T08:51:26.491Z,13.50
2018-08-09T08:53:55.051Z,9.80
2018-08-09T08:56:23.650Z,8.53
2018-08-09T08:58:52.107Z,7.60
2018-08-09T09:01:20.612Z,9.00
2018-08-09T09:03:49.171Z,7.90
2018-08-09T09:06:17.616Z,9.40
2018-08-09T09:08:46.090Z,8.40
2018-08-09T09:11:14.504Z,8.10
2018-08-09T09:13:42.927Z,7.73
2018-08-09T09:16:11.347Z,7.93
2018-08-09T09:18:39.824Z,7.57
2018-08-09T09:21:08.651Z,8.70
2018-08-09T09:23:37.135Z,8.80
2018-08-09T09:26:05.635Z,9.20
2018-08-09T09:28:34.043Z,8.17
2018-08-09T09:31:02.463Z,8.70
2018-08-09T09:33:30.968Z,9.17
2018-08-09T09:35:59.416Z,8.10
2018-08-09T09:38:27.819Z,8.10
2018-08-09T09:40:56.227Z,8.10
2018-08-09T09:43:24.700Z,8.00
2018-08-09T09:45:53.164Z,7.90
2018-08-09T09:48:21.576Z,7.73
2018-08-09T09:50:49.991Z,8.30
2018-08-09T09:53:18.429Z,8.60
2018-08-09T09:55:46.863Z,7.30
2018-08-09T09:58:15.457Z,7.27
2018-08-09T10:00:49.247Z,7.33
2018-08-09T10:03:17.682Z,7.53
2018-08-09T10:05:46.108Z,6.70
2018-08-09T10:08:14.527Z,6.80
2018-08-09T10:10:42.916Z,7.60
2018-08-09T10:13:11.367Z,7.10
2018-08-09T10:15:39.863Z,7.37
2018-08-09T10:18:08.303Z,6.80
2018-08-09T10:20:36.689Z,7.00
2018-08-09T10:23:05.204Z,6.63
2018-08-09T10:25:33.715Z,9.40
2018-08-09T10:28:02.163Z,12.00
2018-08-09T10:30:30.664Z,7.13
2018-08-09T10:32:59.546Z,6.93
2018-08-09T10:35:28.080Z,7.90
2018-08-09T10:37:56.469Z,6.87
2018-08-09T10:40:24.948Z,7.03
2018-08-09T10:42:53.368Z,8.07
2018-08-09T10:45:21.836Z,12.43
2018-08-09T10:47:50.259Z,6.67
2018-08-09T10:50:18.822Z,7.33
2018-08-09T10:52:47.224Z,6.83
2018-08-09T10:55:15.647Z,7.57
2018-08-09T10:57:44.056Z,7.33
2018-08-09T11:00:13.371Z,6.93
2018-08-09T11:02:41.815Z,6.83
2018-08-09T11:05:10.743Z,7.37
2018-08-09T11:07:39.415Z,7.60
2018-08-09T11:10:08.936Z,11.90
2018-08-09T11:12:37.616Z,7.10
2018-08-09T11:15:08.764Z,6.43
2018-08-09T11:17:37.163Z,8.30
2018-08-09T11:20:06.207Z,7.43
2018-08-09T11:22:34.691Z,7.00
2018-08-09T11:25:03.167Z,6.33
2018-08-09T11:27:31.607Z,6.43
2018-08-09T11:30:00.240Z,6.43
2018-08-09T11:32:28.676Z,5.87
2018-08-09T11:34:57.180Z,6.47
2018-08-09T11:37:25.587Z,6.60
2018-08-09T11:39:54.095Z,4.80
2018-08-09T11:42:22.515Z,6.47
2018-08-09T11:44:50.923Z,5.87
2018-08-09T11:47:19.773Z,6.90
2018-08-09T11:49:48.184Z,6.90
2018-08-09T11:52:16.670Z,6.13
2018-08-09T11:54:45.175Z,7.40
2018-08-09T11:57:14.518Z,6.20
2018-08-09T11:59:42.951Z,5.07
2018-08-09T12:02:11.428Z,6.23
2018-08-09T12:04:40.293Z,7.00
2018-08-09T12:07:09.538Z,21.17
2018-08-09T12:09:37.997Z,7.70
2018-08-09T12:12:06.644Z,7.17
2018-08-09T12:14:35.452Z,7.10
2018-08-09T12:17:04.011Z,5.73
2018-08-09T12:19:32.480Z,6.60
2018-08-09T12:22:00.996Z,6.47
2018-08-09T12:24:29.537Z,6.90
2018-08-09T12:26:58.183Z,6.70
2018-08-09T12:29:26.727Z,6.73
2018-08-09T12:31:55.339Z,6.57
2018-08-09T12:34:23.905Z,6.83
2018-08-09T12:36:52.379Z,6.43
2018-08-09T12:39:20.831Z,7.37
2018-08-09T12:41:49.499Z,6.33
2018-08-09T12:44:18.083Z,7.07
2018-08-09T12:46:46.640Z,6.33
2018-08-09T12:49:15.189Z,7.00
2018-08-09T12:51:43.719Z,5.90
2018-08-09T12:54:12.290Z,7.30
2018-08-09T12:56:40.855Z,6.30
2018-08-09T12:59:09.408Z,5.80
2018-08-09T13:01:37.919Z,6.83
2018-08-09T13:04:06.398Z,4.80
2018-08-09T13:06:34.959Z,5.53
2018-08-09T13:09:03.703Z,4.30
2018-08-09T13:11:32.253Z,4.93
2018-08-09T13:14:00.745Z,4.33
2018-08-09T13:16:29.356Z,5.57
2018-08-09T13:18:57.871Z,7.07
2018-08-09T13:21:26.391Z,5.20
2018-08-09T13:23:54.955Z,7.03
2018-08-09T13:26:23.509Z,5.40
2018-08-09T13:28:52.008Z,6.70
2018-08-09T13:31:20.519Z,6.17
2018-08-09T13:33:50.036Z,5.90
2018-08-09T13:36:18.587Z,4.70
2018-08-09T13:38:47.096Z,5.03
2018-08-09T13:41:15.648Z,16.60
2018-08-09T13:43:44.176Z,5.53
2018-08-09T13:46:12.708Z,5.33
2018-08-09T13:48:41.212Z,4.60
2018-08-09T13:51:09.742Z,6.50
2018-08-09T13:53:38.297Z,5.30
2018-08-09T13:56:06.867Z,5.63
2018-08-09T13:58:35.386Z,6.70
2018-08-09T14:01:03.967Z,5.60
2018-08-09T14:03:32.500Z,6.10
2018-08-09T14:06:01.081Z,6.27
2018-08-09T14:08:29.531Z,4.57
2018-08-09T14:10:58.024Z,5.33
2018-08-09T14:13:26.695Z,5.70
2018-08-09T14:15:55.312Z,6.23
2018-08-09T14:18:23.789Z,7.33
2018-08-09T14:20:52.301Z,5.20
2018-08-09T14:23:20.823Z,5.40
2018-08-09T14:25:49.551Z,4.83
2018-08-09T14:28:18.173Z,5.57
2018-08-09T14:30:46.764Z,4.70
2018-08-09T14:33:15.303Z,5.60
2018-08-09T14:35:43.833Z,7.50
2018-08-09T14:38:12.445Z,5.67
2018-08-09T14:40:40.975Z,4.57
2018-08-09T14:43:09.558Z,3.90
2018-08-09T14:45:38.043Z,4.23
2018-08-09T14:48:06.624Z,4.13
2018-08-09T14:50:35.087Z,3.97
2018-08-09T14:53:03.663Z,3.57
2018-08-09T14:55:32.179Z,3.40
2018-08-09T14:58:00.662Z,4.17
2018-08-09T15:00:29.247Z,4.37
2018-08-09T15:02:57.823Z,3.73
2018-08-09T15:05:26.435Z,3.70
2018-08-09T15:07:55.031Z,4.53
2018-08-09T15:10:23.590Z,3.90
2018-08-09T15:12:52.157Z,4.73
2018-08-09T15:15:20.710Z,4.27
2018-08-09T15:17:49.424Z,3.47
2018-08-09T15:20:18.047Z,4.57
2018-08-09T15:22:46.601Z,4.57
2018-08-09T15:25:15.201Z,3.70
2018-08-09T15:27:43.914Z,3.70
2018-08-09T15:30:15.684Z,3.93
2018-08-09T15:32:44.203Z,3.50
2018-08-09T15:35:13.612Z,3.80
2018-08-09T15:37:42.432Z,3.60
2018-08-09T15:40:12.005Z,18.67
2018-08-09T15:42:40.590Z,7.27
2018-08-09T15:45:13.654Z,3.70
2018-08-09T15:47:42.731Z,5.93
2018-08-09T15:50:14.104Z,3.73
2018-08-09T15:52:43.018Z,4.17
2018-08-09T15:55:11.720Z,3.83
2018-08-09T15:57:40.206Z,3.73
2018-08-09T16:00:11.536Z,3.37
2018-08-09T16:02:40.029Z,3.50
2018-08-09T16:05:09.186Z,4.10
2018-08-09T16:07:37.691Z,4.43
2018-08-09T16:10:09.281Z,3.57
2018-08-09T16:12:38.100Z,3.77
2018-08-09T16:15:07.851Z,4.00
2018-08-09T16:17:36.604Z,3.63
2018-08-09T16:20:06.976Z,3.90
2018-08-09T16:22:35.916Z,3.30
2018-08-09T16:25:07.299Z,3.60
2018-08-09T16:27:36.179Z,3.90
2018-08-09T16:30:09.289Z,3.90
2018-08-09T16:32:37.862Z,4.00
2018-08-09T16:35:06.355Z,4.27
2018-08-09T16:37:34.865Z,4.30
2018-08-09T16:40:04.588Z,3.97
2018-08-09T16:42:33.093Z,4.40
2018-08-09T16:45:01.891Z,5.57
2018-08-09T16:47:30.527Z,3.90
2018-08-09T16:49:59.073Z,3.97
2018-08-09T16:52:27.496Z,4.10
2018-08-09T16:54:56.011Z,3.50
2018-08-09T16:57:24.488Z,3.13
2018-08-09T16:59:52.966Z,3.73
2018-08-09T17:02:21.423Z,3.57
2018-08-09T17:04:49.959Z,4.73
2018-08-09T17:07:18.423Z,6.43
2018-08-09T17:10:50.149Z,10.30
2018-08-09T17:13:18.834Z,5.33
2018-08-09T17:15:47.363Z,2.90
2018-08-09T17:18:16.133Z,2.77
2018-08-09T17:20:44.603Z,2.80
2018-08-09T17:23:13.104Z,2.60
2018-08-09T17:25:41.568Z,2.10
2018-08-09T17:28:10.380Z,4.00
2018-08-09T17:30:38.984Z,2.07
2018-08-09T17:33:07.472Z,1.33
2018-08-09T17:35:35.951Z,1.23
2018-08-09T17:38:04.556Z,1.50
2018-08-09T17:40:34.219Z,1.53
2018-08-09T17:43:03.739Z,1.40
2018-08-09T17:45:33.863Z,2.27
2018-08-09T17:48:03.068Z,1.40
2018-08-09T17:50:31.563Z,1.70
2018-08-09T17:53:01.275Z,1.63
2018-08-09T17:55:30.065Z,1.20
2018-08-09T17:57:58.531Z,1.63
2018-08-09T18:00:28.539Z,1.27
2018-08-09T18:02:57.141Z,1.30
2018-08-09T18:05:25.725Z,1.60
2018-08-09T18:07:54.928Z,1.90
2018-08-09T18:10:26.962Z,2.27
2018-08-09T18:12:55.735Z,1.70
2018-08-09T18:15:25.451Z,1.80
2018-08-09T18:17:54.116Z,1.40
2018-08-09T18:20:24.777Z,1.53
2018-08-09T18:22:54.660Z,1.40
2018-08-09T18:25:23.185Z,1.50
2018-08-09T18:27:51.710Z,1.53
2018-08-09T18:30:20.843Z,1.30
2018-08-09T18:32:49.555Z,1.27
2018-08-09T18:35:19.195Z,1.20
2018-08-09T18:37:47.761Z,1.50
2018-08-09T18:40:18.912Z,1.77
2018-08-09T18:42:47.444Z,1.60
2018-08-09T18:45:16.116Z,1.47
2018-08-09T18:47:45.284Z,1.37
2018-08-09T18:50:19.096Z,1.30
2018-08-09T18:52:47.667Z,2.00
2018-08-09T18:55:17.238Z,2.40
2018-08-09T18:57:45.735Z,1.60
2018-08-09T19:00:15.935Z,2.37
2018-08-09T19:02:45.168Z,2.27
2018-08-09T19:05:13.692Z,4.20
2018-08-09T19:07:42.335Z,6.60
2018-08-09T19:10:12.762Z,4.00
2018-08-09T19:12:41.335Z,2.70
2018-08-09T19:15:11.068Z,7.40
2018-08-09T19:17:40.082Z,5.00
2018-08-09T19:20:22.579Z,4.00
2018-08-09T19:22:51.397Z,3.73
2018-08-09T19:25:19.922Z,2.40
2018-08-09T19:27:48.650Z,1.60
2018-08-09T19:30:18.675Z,1.70
2018-08-09T19:32:47.155Z,1.60
2018-08-09T19:35:16.981Z,1.87
2018-08-09T19:37:45.553Z,1.43
2018-08-09T19:40:15.871Z,2.10
2018-08-09T19:42:44.413Z,1.10
2018-08-09T19:45:15.354Z,0.90
2018-08-09T19:47:43.974Z,1.57
2018-08-09T19:50:14.904Z,1.90
2018-08-09T19:52:43.891Z,1.40
2018-08-09T19:55:16.864Z,1.53
2018-08-09T19:57:46.719Z,1.83
2018-08-09T20:00:19.283Z,1.60
2018-08-09T20:02:48.678Z,2.03
2018-08-09T20:05:17.436Z,1.80
2018-08-09T20:07:46.098Z,1.90
2018-08-09T20:10:15.143Z,1.50
2018-08-09T20:12:44.547Z,1.50
2018-08-09T20:15:16.661Z,1.30
2018-08-09T20:17:45.247Z,1.80
2018-08-09T20:20:15.225Z,1.90
2018-08-09T20:22:43.902Z,1.87
2018-08-09T20:25:13.305Z,2.50
2018-08-09T20:27:42.480Z,5.20
2018-08-09T20:30:13.611Z,2.50
2018-08-09T20:32:42.767Z,1.93
2018-08-09T20:35:13.856Z,1.90
2018-08-09T20:37:43.487Z,1.80
2018-08-09T20:40:12.615Z,1.80
2018-08-09T20:42:41.623Z,1.47
2018-08-09T20:45:12.072Z,1.70
2018-08-09T20:47:40.599Z,2.03
2018-08-09T20:50:11.752Z,1.53
2018-08-09T20:52:41.327Z,1.70
2018-08-09T20:55:10.231Z,1.40
2018-08-09T20:57:39.730Z,1.33
2018-08-09T21:00:14.677Z,1.30
2018-08-09T21:02:43.961Z,0.97
2018-08-09T21:05:23.550Z,1.00
2018-08-09T21:07:53.555Z,0.73
2018-08-09T21:10:22.607Z,1.00
2018-08-09T21:12:51.073Z,0.80
2018-08-09T21:22:48.144Z,0.70
2018-08-09T21:25:16.899Z,0.80
2018-08-09T21:27:45.889Z,0.60
2018-08-09T21:30:16.691Z,1.67
2018-08-09T21:32:45.706Z,1.10
2018-08-09T21:35:14.207Z,0.93
2018-08-09T21:37:43.398Z,2.10
2018-08-09T21:40:12.816Z,18.10
2018-08-09T21:42:41.303Z,1.03
2018-08-09T21:45:20.401Z,2.00
2018-08-09T21:47:48.835Z,0.70
2018-08-09T21:50:19.632Z,0.70
2018-08-09T21:52:48.128Z,1.00
2018-08-09T21:55:16.784Z,0.83
2018-08-09T21:57:46.199Z,0.80
2018-08-09T22:00:26.884Z,0.60
2018-08-09T22:02:55.391Z,0.70
2018-08-09T22:06:29.898Z,0.90
2018-08-09T22:09:03.796Z,0.63
2018-08-09T22:11:37.473Z,0.90
2018-08-09T22:14:11.357Z,0.80
2018-08-09T22:16:44.939Z,0.73
2018-08-09T22:19:18.645Z,0.90
2018-08-09T22:21:52.388Z,0.60
2018-08-09T22:24:20.869Z,0.73
2018-08-09T22:26:49.326Z,0.90
2018-08-09T22:29:17.792Z,0.70
2018-08-09T22:31:46.245Z,0.87
2018-08-09T22:34:14.703Z,0.70
2018-08-09T22:36:43.114Z,0.80
2018-08-09T22:39:11.519Z,1.87
2018-08-09T22:41:39.972Z,1.33
2018-08-09T22:44:08.399Z,0.80
2018-08-09T22:46:36.840Z,0.77
2018-08-09T22:49:05.735Z,0.80
2018-08-09T22:51:34.224Z,0.70
2018-08-09T22:54:02.661Z,0.80
2018-08-09T22:56:31.129Z,0.80
2018-08-09T22:58:59.547Z,0.90
2018-08-09T23:01:27.988Z,0.77
2018-08-09T23:03:56.455Z,0.70
2018-08-09T23:06:25.043Z,0.60
2018-08-09T23:08:53.555Z,0.90
2018-08-09T23:11:22.001Z,1.00
2018-08-09T23:13:50.471Z,0.80
2018-08-09T23:16:18.943Z,0.70
2018-08-09T23:18:47.431Z,0.70
2018-08-09T23:21:15.886Z,0.87
2018-08-09T23:23:44.330Z,1.20
2018-08-09T23:26:12.812Z,0.80
2018-08-09T23:28:41.247Z,1.80
2018-08-09T23:31:09.702Z,1.30
2018-08-09T23:33:38.160Z,1.20
2018-08-09T23:36:06.639Z,2.07
2018-08-09T23:38:35.103Z,1.40
2018-08-09T23:41:03.567Z,1.40
2018-08-09T23:43:31.957Z,1.50
2018-08-09T23:46:00.496Z,1.40
2018-08-09T23:48:28.924Z,1.70
2018-08-09T23:50:57.343Z,1.20
2018-08-09T23:53:25.767Z,1.30
2018-08-09T23:55:54.227Z,1.30
2018-08-09T23:58:22.671Z,1.30
